Time;durP1;ratioP1;P1;durP2;ratioP2;P2;SDS_P1;SDS_P2;PMS_P1;PMS_P2;Temp;Humidity;BMP_temperature;BMP_pressure;BME280_temperature;BME280_humidity;BME280_pressure;Samples;Min_cycle;Max_cycle;Signal;HPM_P1;HPM_P2
2022/12/04 00:02:09;;;;;;;;;21.25;18.50;;;;;6.13;69.04;100728.09;5028265;28;45725;-79
2022/12/04 00:04:35;;;;;;;;;28.50;24.50;;;;;5.83;68.87;100671.72;5028101;28;45731;-79
2022/12/04 00:07:01;;;;;;;;;25.50;21.00;;;;;6.11;69.04;100716.72;5028469;28;45362;-80
2022/12/04 00:09:26;;;;;;;;;23.00;20.50;;;;;6.12;68.86;100722.81;5028350;28;45439;-80
2022/12/04 00:11:52;;;;;;;;;22.25;21.00;;;;;6.09;68.94;100718.31;5028167;28;45494;-80
2022/12/04 00:14:17;;;;;;;;;23.50;19.25;;;;;6.09;68.77;100723.53;5030634;28;45476;-80
2022/12/04 00:16:43;;;;;;;;;24.25;21.25;;;;;5.95;69.02;100698.44;5032379;28;45443;-80
2022/12/04 00:19:08;;;;;;;;;23.25;19.75;;;;;6.05;68.87;100726.81;5031428;28;45553;-81
2022/12/04 00:21:33;;;;;;;;;23.00;20.00;;;;;5.69;68.97;100657.94;5031628;28;45394;-80
2022/12/04 00:23:59;;;;;;;;;21.67;19.00;;;;;5.91;69.31;100697.41;5031394;28;45664;-80
2022/12/04 00:26:26;;;;;;;;;20.75;19.25;;;;;5.95;69.22;100701.06;5030965;28;44826;-84
2022/12/04 00:28:52;;;;;;;;;24.75;21.75;;;;;5.81;69.06;100671.63;5046912;28;45658;-79
2022/12/04 00:31:20;;;;;;;;;28.75;21.50;;;;;6.04;68.95;100711.06;5031309;28;45547;-80
2022/12/04 00:33:46;;;;;;;;;23.00;20.25;;;;;5.98;69.09;100692.50;5031553;28;45768;-80
2022/12/04 00:36:15;;;;;;;;;21.50;19.50;;;;;6.07;69.01;100699.09;5031494;28;45356;-79
2022/12/04 00:38:41;;;;;;;;;23.50;20.25;;;;;6.08;69.00;100703.50;5031859;28;45325;-81
2022/12/04 00:41:08;;;;;;;;;24.25;19.00;;;;;5.87;68.92;100668.44;5030666;28;45829;-80
2022/12/04 00:43:34;;;;;;;;;23.50;22.00;;;;;5.76;68.90;100653.94;5030812;28;45516;-79
2022/12/04 00:45:59;;;;;;;;;25.00;19.75;;;;;5.99;68.96;100696.91;5031405;28;45475;-80
2022/12/04 00:48:24;;;;;;;;;23.50;21.75;;;;;5.95;68.88;100699.34;5030814;28;45404;-81
2022/12/04 00:50:50;;;;;;;;;20.33;19.00;;;;;5.86;68.88;100688.41;5030774;28;56750;-79
2022/12/04 00:53:15;;;;;;;;;23.75;22.75;;;;;5.99;68.82;100700.41;5030961;28;45288;-82
2022/12/04 00:55:42;;;;;;;;;20.67;16.33;;;;;5.99;68.90;100708.22;5031491;28;45420;-80
2022/12/04 00:58:08;;;;;;;;;21.75;19.25;;;;;5.99;68.95;100702.13;5030798;28;45547;-81
2022/12/04 01:00:35;;;;;;;;;21.75;18.00;;;;;5.73;68.92;100666.81;5031115;28;45917;-80
2022/12/04 01:03:01;;;;;;;;;26.50;21.50;;;;;5.80;68.60;100682.84;5030789;28;45796;-80
2022/12/04 01:05:26;;;;;;;;;20.25;17.50;;;;;5.92;68.98;100698.31;5030235;28;45427;-80
2022/12/04 01:07:52;;;;;;;;;23.50;18.75;;;;;5.97;69.23;100706.38;5031114;28;45420;-80
2022/12/04 01:10:18;;;;;;;;;24.75;20.75;;;;;5.75;69.20;100657.34;5012551;28;47685;-79
2022/12/04 01:12:43;;;;;;;;;24.75;21.50;;;;;5.86;69.01;100672.78;5030842;28;45387;-81
2022/12/04 01:15:09;;;;;;;;;28.00;22.67;;;;;5.81;68.98;100657.66;5030461;28;45512;-80
2022/12/04 01:17:34;;;;;;;;;20.50;17.75;;;;;5.74;68.80;100651.25;5031029;28;45442;-80
2022/12/04 01:20:00;;;;;;;;;26.75;20.50;;;;;6.01;69.04;100700.47;5030223;28;46013;-80
2022/12/04 01:22:25;;;;;;;;;19.00;18.33;;;;;5.78;69.02;100662.75;5030560;28;45415;-85
2022/12/04 01:24:54;;;;;;;;;20.33;19.33;;;;;5.80;69.06;100668.94;5011843;28;45384;-86
2022/12/04 01:27:20;;;;;;;;;20.25;15.50;;;;;5.48;69.10;100600.38;5029995;28;45412;-84
2022/12/04 01:29:48;;;;;;;;;26.33;19.00;;;;;5.77;69.16;100651.44;5030637;28;46173;-82
2022/12/04 01:32:13;;;;;;;;;22.25;18.50;;;;;5.92;69.05;100678.34;5030137;28;45745;-83
2022/12/04 01:34:39;;;;;;;;;24.00;20.50;;;;;5.93;68.92;100693.16;5015952;28;49427;-84
2022/12/04 01:37:04;;;;;;;;;19.67;19.00;;;;;5.90;68.91;100681.63;5030082;28;55438;-84
2022/12/04 01:39:29;;;;;;;;;22.50;19.50;;;;;6.03;68.93;100706.69;5029965;28;45481;-86
2022/12/04 01:41:55;;;;;;;;;31.67;23.33;;;;;6.01;69.08;100704.00;5029758;28;49669;-84
2022/12/04 01:44:23;;;;;;;;;23.25;20.50;;;;;5.72;68.87;100657.22;5030033;28;45514;-84
2022/12/04 01:46:53;;;;;;;;;20.50;17.50;;;;;6.06;69.18;100706.81;5030479;28;45541;-86
2022/12/04 01:49:40;;;;;;;;;26.50;21.75;;;;;6.06;69.15;100710.34;5029802;28;45404;-86
2022/12/04 01:52:20;;;;;;;;;25.25;22.50;;;;;5.82;69.06;100662.09;5030218;28;45570;-85
2022/12/04 01:54:50;;;;;;;;;30.25;26.75;;;;;6.11;68.94;100716.72;5030659;28;45410;-86
2022/12/04 01:57:19;;;;;;;;;23.00;20.75;;;;;5.87;68.86;100658.00;5029679;28;45729;-85
2022/12/04 01:59:49;;;;;;;;;23.00;22.50;;;;;6.14;69.16;100705.50;5030258;28;45709;-85
2022/12/04 02:02:18;;;;;;;;;19.50;18.50;;;;;6.15;69.22;100697.75;5028771;28;45892;-85
2022/12/04 02:04:43;;;;;;;;;20.50;19.00;;;;;6.08;69.07;100690.44;5030494;28;45539;-85
2022/12/04 02:07:10;;;;;;;;;25.25;21.50;;;;;5.91;68.95;100655.69;5030176;28;45632;-81
2022/12/04 02:09:40;;;;;;;;;23.50;18.75;;;;;6.18;69.21;100699.66;5030499;28;45304;-81
2022/12/04 02:12:11;;;;;;;;;21.50;20.50;;;;;6.15;68.99;100702.97;5029645;28;46150;-80
2022/12/04 02:15:10;;;;;;;;;27.50;23.00;;;;;6.12;68.97;100697.63;5030518;28;45561;-79
2022/12/04 02:18:02;;;;;;;;;28.50;23.00;;;;;6.12;69.25;100704.56;5029614;28;45470;-80
2022/12/04 02:20:55;;;;;;;;;19.50;15.75;;;;;6.15;69.34;100697.75;5028755;28;46477;-80
2022/12/04 02:23:45;;;;;;;;;22.25;18.50;;;;;6.18;69.03;100704.88;5029363;28;45911;-80
2022/12/04 02:26:22;;;;;;;;;22.00;19.00;;;;;6.13;68.90;100698.50;5029172;28;45434;-81
2022/12/04 02:29:11;;;;;;;;;22.25;20.00;;;;;6.13;69.18;100699.41;5030201;28;45907;-80
2022/12/04 02:31:46;;;;;;;;;24.75;22.00;;;;;6.06;69.05;100673.84;5029553;28;45476;-79
2022/12/04 02:34:24;;;;;;;;;22.50;20.00;;;;;5.94;68.79;100655.81;5029389;28;45467;-80
2022/12/04 02:36:59;;;;;;;;;23.75;23.00;;;;;6.07;69.29;100680.84;5029748;28;45409;-79
2022/12/04 02:39:36;;;;;;;;;27.25;23.00;;;;;6.19;69.06;100696.22;5027734;28;45620;-81
2022/12/04 02:42:21;;;;;;;;;20.25;18.00;;;;;6.18;69.37;100697.03;5029048;28;45908;-80
2022/12/04 02:44:58;;;;;;;;;27.00;22.75;;;;;6.15;69.02;100691.66;5029957;28;45883;-80
2022/12/04 02:47:25;;;;;;;;;24.50;23.00;;;;;6.07;68.89;100682.56;5028405;28;45459;-79
2022/12/04 02:50:04;;;;;;;;;27.25;22.00;;;;;6.12;69.17;100687.19;5029831;28;45674;-81
2022/12/04 02:52:38;;;;;;;;;20.50;18.25;;;;;6.02;68.90;100666.66;5029062;28;46209;-80
2022/12/04 02:55:09;;;;;;;;;26.25;23.50;;;;;6.03;68.75;100667.56;5028854;28;45725;-80
2022/12/04 02:57:39;;;;;;;;;26.00;22.50;;;;;6.13;68.88;100672.41;5029825;28;45572;-81
2022/12/04 03:00:07;;;;;;;;;12.50;9.75;;;;;6.11;69.16;100655.81;5029136;28;45527;-79
2022/12/04 03:02:41;;;;;;;;;28.00;25.25;;;;;6.12;69.02;100661.09;5028516;28;46244;-80
2022/12/04 03:05:11;;;;;;;;;31.00;27.50;;;;;6.25;69.18;100679.97;5029010;28;45620;-81
2022/12/04 03:07:44;;;;;;;;;26.75;22.25;;;;;6.10;69.11;100652.28;5029568;28;45428;-81
2022/12/04 03:10:17;;;;;;;;;23.25;22.50;;;;;6.28;69.12;100680.13;5028871;28;45575;-80
2022/12/04 03:13:17;;;;;;;;;23.25;21.50;;;;;6.26;68.80;100684.41;5029163;28;46985;-79
2022/12/04 03:15:48;;;;;;;;;21.25;18.75;;;;;6.25;69.26;100686.06;5028938;28;45474;-80
2022/12/04 03:18:22;;;;;;;;;24.25;23.00;;;;;5.87;68.79;100605.84;5028105;28;45549;-80
2022/12/04 03:20:51;;;;;;;;;25.75;23.50;;;;;6.28;68.98;100667.97;5029271;28;45403;-80
2022/12/04 03:23:22;;;;;;;;;30.00;25.25;;;;;6.01;68.98;100633.56;5028787;28;48582;-79
2022/12/04 03:25:59;;;;;;;;;23.25;21.25;;;;;6.08;69.10;100646.09;5029083;28;45534;-80
2022/12/04 03:28:49;;;;;;;;;27.50;23.25;;;;;6.05;69.17;100642.44;5028826;28;45452;-80
2022/12/04 03:31:23;;;;;;;;;24.25;22.00;;;;;6.25;68.99;100677.34;4979341;28;45398;-81
2022/12/04 03:33:53;;;;;;;;;24.00;20.75;;;;;6.24;69.19;100672.97;5029153;28;46382;-79
2022/12/04 03:36:24;;;;;;;;;23.00;19.50;;;;;6.23;68.84;100677.28;5028658;28;45830;-80
2022/12/04 03:39:01;;;;;;;;;23.00;20.25;;;;;6.21;69.06;100665.88;5028436;28;45481;-79
2022/12/04 03:41:54;;;;;;;;;24.00;20.50;;;;;6.22;68.86;100666.78;5028520;28;45579;-80
2022/12/04 03:44:26;;;;;;;;;23.75;21.25;;;;;5.98;69.16;100619.47;5022821;28;45723;-86
2022/12/04 03:46:59;;;;;;;;;19.50;15.75;;;;;5.98;68.71;100612.53;5028672;28;45720;-84
2022/12/04 03:49:37;;;;;;;;;20.75;19.25;;;;;6.24;68.89;100649.47;5031875;28;45519;-85
2022/12/04 03:52:13;;;;;;;;;18.75;16.00;;;;;6.20;68.56;100628.44;5032004;28;45490;-84
2022/12/04 03:54:50;;;;;;;;;19.00;18.75;;;;;6.14;68.71;100615.09;5031911;28;45673;-87
2022/12/04 03:57:21;;;;;;;;;19.75;16.25;;;;;6.11;68.51;100617.56;5031572;28;45399;-85
2022/12/04 04:00:04;;;;;;;;;14.75;14.00;;;;;6.11;68.66;100604.50;5032554;28;45395;-86
2022/12/04 04:02:34;;;;;;;;;18.50;15.75;;;;;5.99;68.70;100569.97;5031281;28;45526;-86
2022/12/04 04:05:01;;;;;;;;;19.00;15.75;;;;;5.95;68.63;100563.69;5031873;28;45497;-85
2022/12/04 04:07:40;;;;;;;;;21.25;19.50;;;;;6.06;68.40;100586.81;5031720;28;45866;-85
2022/12/04 04:10:13;;;;;;;;;18.00;14.50;;;;;6.01;68.48;100572.66;5031644;28;45692;-84
2022/12/04 04:24:12;;;;;;;;;20.00;15.25;;;;;5.98;68.53;100580.34;5031895;28;45296;-86
2022/12/04 04:26:40;;;;;;;;;24.25;19.75;;;;;5.74;68.99;100554.78;5031721;28;45619;-81
2022/12/04 04:29:08;;;;;;;;;19.25;16.75;;;;;5.94;68.89;100576.66;5031653;28;45417;-79
2022/12/04 04:31:48;;;;;;;;;19.00;18.00;;;;;6.08;68.77;100606.97;5031066;28;45916;-80
2022/12/04 04:34:45;;;;;;;;;19.25;17.50;;;;;5.91;68.96;100564.38;5031236;28;45462;-81
2022/12/04 04:37:33;;;;;;;;;22.50;19.50;;;;;5.87;68.82;100545.88;5030815;28;46133;-80
2022/12/04 04:40:20;;;;;;;;;22.25;19.00;;;;;6.15;68.99;100603.81;5030652;28;45365;-80
2022/12/04 04:43:05;;;;;;;;;23.00;19.25;;;;;6.15;68.89;100602.94;5031546;28;45635;-80
2022/12/04 04:45:36;;;;;;;;;19.75;15.75;;;;;6.14;69.04;100596.81;5030760;28;45710;-83
2022/12/04 04:48:08;;;;;;;;;23.25;22.50;;;;;6.05;68.91;100585.03;5031116;28;46235;-81
2022/12/04 04:50:36;;;;;;;;;22.75;19.25;;;;;6.14;68.84;100603.75;5031325;28;45796;-79
2022/12/04 04:53:07;;;;;;;;;25.25;23.00;;;;;6.08;68.67;100596.53;5030859;28;45424;-81
2022/12/04 04:55:34;;;;;;;;;19.00;17.50;;;;;6.08;68.78;100590.41;5031133;28;45375;-81
2022/12/04 04:58:08;;;;;;;;;26.00;24.00;;;;;6.13;68.66;100589.81;5029235;28;46278;-81
2022/12/04 05:00:34;;;;;;;;;22.75;21.50;;;;;6.15;68.83;100596.00;5030176;28;45492;-80
2022/12/04 05:03:00;;;;;;;;;26.25;20.75;;;;;6.12;68.61;100598.47;5031038;28;45541;-80
2022/12/04 05:05:25;;;;;;;;;24.33;21.33;;;;;6.11;68.74;100599.28;5030361;28;56148;-80
2022/12/04 05:07:50;;;;;;;;;22.00;20.67;;;;;6.01;68.78;100594.44;5030750;28;45911;-79
2022/12/04 05:10:15;;;;;;;;;26.33;21.67;;;;;5.81;68.47;100559.50;5012022;28;60650;-79
2022/12/04 05:12:41;;;;;;;;;22.50;19.50;;;;;5.87;68.97;100580.66;5030779;28;45326;-79
2022/12/04 05:15:07;;;;;;;;;28.33;21.00;;;;;5.98;68.65;100589.06;5011420;28;58489;-80
2022/12/04 05:17:34;;;;;;;;;31.50;21.75;;;;;6.04;68.85;100591.06;5030816;28;45388;-80
2022/12/04 05:19:59;;;;;;;;;21.75;21.50;;;;;5.99;68.79;100582.13;5030580;28;45438;-80
2022/12/04 05:22:30;;;;;;;;;29.33;20.67;;;;;6.05;68.74;100600.69;5030028;28;54002;-80
2022/12/04 05:24:56;;;;;;;;;21.50;20.50;;;;;6.11;68.92;100607.13;5030882;28;45597;-79
2022/12/04 05:27:22;;;;;;;;;19.75;17.75;;;;;6.06;68.69;100590.34;5030297;28;46026;-80
2022/12/04 05:29:50;;;;;;;;;22.50;19.25;;;;;6.11;68.73;100590.59;5030530;28;45576;-80
2022/12/04 05:32:15;;;;;;;;;24.75;20.75;;;;;6.12;68.81;100608.91;5030145;28;45749;-80
2022/12/04 05:34:40;;;;;;;;;22.50;20.75;;;;;6.07;68.83;100596.47;5030673;28;45794;-80
2022/12/04 05:37:06;;;;;;;;;26.25;21.75;;;;;6.32;68.74;100663.81;5028347;28;47450;-79
2022/12/04 05:39:32;;;;;;;;;27.67;23.00;;;;;6.11;68.75;100620.16;5030752;28;45667;-80
2022/12/04 05:41:57;;;;;;;;;33.00;24.00;;;;;6.13;68.78;100625.47;5030390;28;45601;-79
2022/12/04 05:44:23;;;;;;;;;32.67;28.00;;;;;6.26;68.65;100637.41;5029831;28;45574;-84
2022/12/04 05:46:48;;;;;;;;;28.50;21.75;;;;;6.18;68.67;100639.63;5030464;28;45709;-79
2022/12/04 05:49:13;;;;;;;;;28.00;24.00;;;;;6.29;68.56;100654.09;5030229;28;45420;-80
2022/12/04 05:51:39;;;;;;;;;24.00;21.67;;;;;6.06;68.97;100618.13;5030436;28;45539;-79
2022/12/04 05:54:04;;;;;;;;;32.00;22.67;;;;;6.06;68.80;100620.72;5029557;28;45786;-79
2022/12/04 05:56:29;;;;;;;;;27.33;22.33;;;;;6.07;68.81;100620.81;5029587;28;46097;-82
2022/12/04 05:58:54;;;;;;;;;27.33;24.00;;;;;6.32;68.79;100672.53;5030279;28;45451;-81
2022/12/04 06:01:22;;;;;;;;;32.00;25.67;;;;;6.34;68.73;100665.66;5028781;28;53646;-81
2022/12/04 06:03:48;;;;;;;;;23.50;19.00;;;;;6.36;68.72;100665.75;5045588;28;45407;-80
2022/12/04 06:06:19;;;;;;;;;27.50;22.25;;;;;6.14;68.70;100619.41;5029777;28;46154;-85
2022/12/04 06:08:44;;;;;;;;;25.75;21.50;;;;;6.11;68.69;100609.72;5029855;28;45452;-85
2022/12/04 06:11:15;;;;;;;;;28.25;25.50;;;;;6.24;68.96;100629.50;5029046;28;45375;-84
2022/12/04 06:13:42;;;;;;;;;21.75;19.25;;;;;6.04;68.77;100599.78;5030395;28;45578;-85
2022/12/04 06:16:35;;;;;;;;;31.00;27.75;;;;;6.36;68.98;100663.16;5028848;28;46394;-84
2022/12/04 06:19:04;;;;;;;;;27.25;20.50;;;;;6.39;68.87;100661.56;5027876;28;46044;-86
2022/12/04 06:21:31;;;;;;;;;32.25;27.50;;;;;6.24;68.83;100620.78;5029298;28;45455;-86
2022/12/04 06:23:57;;;;;;;;;27.75;24.50;;;;;6.43;69.04;100646.97;5029734;28;45329;-82
2022/12/04 06:26:23;;;;;;;;;26.50;22.50;;;;;6.41;68.82;100652.13;5029374;28;46341;-85
2022/12/04 06:28:52;;;;;;;;;25.25;23.75;;;;;6.41;68.77;100659.94;5029580;28;45435;-86
2022/12/04 06:31:17;;;;;;;;;24.00;20.25;;;;;6.15;68.65;100600.31;5029193;28;45610;-85
2022/12/04 06:33:43;;;;;;;;;29.00;24.00;;;;;6.46;68.85;100653.25;5029920;28;45509;-80
2022/12/04 06:36:14;;;;;;;;;28.25;24.50;;;;;6.42;68.92;100660.84;5029147;28;46195;-80
2022/12/04 06:38:40;;;;;;;;;31.50;27.00;;;;;6.43;69.00;100663.50;5029925;28;45579;-79
2022/12/04 06:41:06;;;;;;;;;29.50;23.50;;;;;6.49;68.77;100673.38;5029375;28;45373;-80
2022/12/04 06:43:33;;;;;;;;;27.00;23.50;;;;;6.48;68.71;100666.34;5029364;28;46272;-80
2022/12/04 06:45:59;;;;;;;;;32.50;31.25;;;;;6.27;68.83;100623.53;5028952;28;45404;-80
2022/12/04 06:48:27;;;;;;;;;35.00;27.00;;;;;6.36;68.75;100644.88;5029009;28;45593;-79
2022/12/04 06:51:05;;;;;;;;;31.25;25.50;;;;;6.50;69.03;100675.16;5029339;28;45461;-80
2022/12/04 06:53:31;;;;;;;;;24.75;20.50;;;;;6.39;68.86;100651.13;5029285;28;45415;-80
2022/12/04 06:56:01;;;;;;;;;24.75;23.25;;;;;6.52;68.88;100676.13;5029623;28;45755;-80
2022/12/04 06:58:27;;;;;;;;;26.75;25.00;;;;;6.51;68.59;100670.84;5029087;28;45640;-80
2022/12/04 07:00:53;;;;;;;;;32.25;28.50;;;;;6.50;68.77;100667.31;5029603;28;45520;-80
2022/12/04 07:03:18;;;;;;;;;28.50;24.75;;;;;6.34;68.61;100654.34;5029231;28;45368;-80
2022/12/04 07:05:44;;;;;;;;;34.00;25.75;;;;;6.48;68.85;100671.56;5029026;28;45388;-79
2022/12/04 07:08:10;;;;;;;;;32.50;28.75;;;;;6.30;69.11;100634.13;5028975;28;45702;-80
2022/12/04 07:10:35;;;;;;;;;24.75;20.75;;;;;6.52;68.83;100667.41;5029135;28;45471;-81
2022/12/04 07:13:02;;;;;;;;;24.25;22.75;;;;;6.52;68.70;100665.69;5028506;28;45876;-80
2022/12/04 07:15:28;;;;;;;;;28.00;24.25;;;;;6.51;68.72;100666.53;5028352;28;46302;-79
2022/12/04 07:17:53;;;;;;;;;34.00;25.50;;;;;6.38;68.69;100664.13;5029161;28;45519;-79
2022/12/04 07:20:19;;;;;;;;;36.00;29.00;;;;;6.46;68.84;100673.22;5028498;28;53809;-79
2022/12/04 07:22:44;;;;;;;;;29.25;26.75;;;;;6.43;68.66;100678.28;5029437;28;45734;-80
2022/12/04 07:25:09;;;;;;;;;31.67;27.67;;;;;6.30;68.92;100660.22;5032522;28;45852;-80
2022/12/04 07:27:35;;;;;;;;;32.50;27.75;;;;;6.40;69.24;100681.66;5032442;28;45495;-80
2022/12/04 07:30:00;;;;;;;;;32.00;30.00;;;;;6.44;69.04;100685.28;5031756;28;45915;-80
2022/12/04 07:32:25;;;;;;;;;28.00;24.33;;;;;6.40;69.35;100676.44;5031605;28;54856;-81
2022/12/04 07:34:50;;;;;;;;;28.67;24.67;;;;;6.33;69.00;100670.81;5032328;28;46182;-80
2022/12/04 07:37:16;;;;;;;;;31.33;26.67;;;;;6.44;69.44;100680.06;5031171;28;59744;-80
2022/12/04 07:39:41;;;;;;;;;31.67;23.00;;;;;6.36;69.23;100666.66;5032434;28;45422;-80
2022/12/04 07:42:06;;;;;;;;;32.67;29.67;;;;;6.17;69.23;100624.78;5032073;28;45722;-80
2022/12/04 07:44:32;;;;;;;;;33.67;28.67;;;;;6.45;69.21;100674.03;5031961;28;45979;-82
2022/12/04 07:46:57;;;;;;;;;38.00;30.25;;;;;6.49;69.08;100680.31;5031716;28;45802;-79
2022/12/04 07:49:22;;;;;;;;;29.00;25.33;;;;;6.32;69.37;100632.50;5030253;28;45696;-80
2022/12/04 07:51:48;;;;;;;;;44.25;32.75;;;;;6.51;68.88;100666.53;5032055;28;45380;-83
2022/12/04 07:54:13;;;;;;;;;40.75;29.75;;;;;6.36;68.98;100642.28;5031514;28;46195;-81
2022/12/04 07:56:38;;;;;;;;;36.33;33.00;;;;;6.40;69.36;100652.94;5047010;28;61881;-81
2022/12/04 07:59:03;;;;;;;;;37.00;29.67;;;;;6.51;69.21;100661.31;5030378;28;45718;-80
2022/12/04 08:01:30;;;;;;;;;29.33;28.33;;;;;6.54;69.05;100666.66;5031233;28;53530;-80
2022/12/04 08:03:58;;;;;;;;;34.75;30.75;;;;;6.40;69.26;100639.91;5031791;28;45524;-81
2022/12/04 08:06:25;;;;;;;;;42.75;37.50;;;;;6.46;68.93;100641.91;5046605;28;45911;-81
2022/12/04 08:08:51;;;;;;;;;32.50;29.25;;;;;6.47;69.23;100643.69;5031990;28;45904;-81
2022/12/04 08:11:21;;;;;;;;;31.50;28.00;;;;;6.60;69.15;100661.75;5031526;28;45703;-80
2022/12/04 08:13:46;;;;;;;;;34.25;27.75;;;;;6.61;69.07;100668.75;5031598;28;46070;-79
2022/12/04 08:16:13;;;;;;;;;33.75;29.25;;;;;6.26;69.07;100598.28;5031035;28;45577;-81
2022/12/04 08:18:39;;;;;;;;;31.25;24.25;;;;;6.52;69.25;100647.41;5031998;28;45494;-80
2022/12/04 08:21:09;;;;;;;;;30.00;27.00;;;;;6.62;69.33;100660.09;5031123;28;45567;-81
2022/12/04 08:23:36;;;;;;;;;36.75;28.50;;;;;6.65;69.52;100661.94;5031652;28;45869;-80
2022/12/04 08:26:02;;;;;;;;;35.50;29.75;;;;;6.38;69.43;100609.28;5031212;28;45739;-82
2022/12/04 08:28:28;;;;;;;;;33.75;27.75;;;;;6.64;69.06;100655.84;5031307;28;45599;-84
2022/12/04 08:30:54;;;;;;;;;33.00;26.00;;;;;6.57;69.42;100645.94;5031504;28;45565;-85
2022/12/04 08:33:20;;;;;;;;;36.75;32.00;;;;;6.60;69.38;100647.78;5030688;28;45512;-86
2022/12/04 08:35:45;;;;;;;;;33.50;29.50;;;;;6.63;69.43;100659.28;5031823;28;45404;-86
2022/12/04 08:38:10;;;;;;;;;35.75;26.75;;;;;6.61;68.97;100644.38;5031616;28;45401;-86
2022/12/04 08:40:36;;;;;;;;;31.00;28.00;;;;;6.69;69.12;100656.06;5031630;28;45499;-86
2022/12/04 08:43:01;;;;;;;;;29.67;28.67;;;;;6.81;69.09;100684.50;5031031;28;46189;-86
2022/12/04 08:45:26;;;;;;;;;29.00;26.67;;;;;6.85;69.31;100678.63;5043076;28;45391;-85
2022/12/04 08:47:52;;;;;;;;;41.33;34.00;;;;;6.88;69.06;100684.88;5035794;28;45595;-79
2022/12/04 08:50:17;;;;;;;;;28.25;24.00;;;;;6.88;69.03;100678.75;5030831;28;45570;-80
2022/12/04 08:52:42;;;;;;;;;47.67;34.33;;;;;6.78;68.98;100668.69;5031433;28;46173;-81
2022/12/04 08:55:08;;;;;;;;;36.33;28.00;;;;;6.88;69.20;100678.75;5031102;28;45707;-81
2022/12/04 08:57:33;;;;;;;;;32.00;29.00;;;;;6.88;69.05;100681.34;5031664;28;45663;-81
2022/12/04 08:59:59;;;;;;;;;36.75;32.25;;;;;6.88;69.20;100683.97;5030931;28;45359;-80
2022/12/04 09:02:24;;;;;;;;;35.67;30.67;;;;;6.84;68.96;100674.19;5030596;28;53071;-80
2022/12/04 09:04:49;;;;;;;;;39.00;32.33;;;;;6.95;69.34;100681.75;5030612;28;54484;-80
2022/12/04 09:07:14;;;;;;;;;33.00;29.33;;;;;6.96;69.37;100675.69;5030202;28;48764;-80
2022/12/04 09:09:40;;;;;;;;;37.00;33.00;;;;;7.00;69.24;100668.00;5031302;28;45708;-80
2022/12/04 09:12:05;;;;;;;;;36.50;33.50;;;;;7.08;69.10;100685.81;5030299;28;46728;-79
2022/12/04 09:14:30;;;;;;;;;37.25;30.75;;;;;7.04;69.32;100683.88;5030734;28;45526;-81
2022/12/04 09:16:56;;;;;;;;;26.33;23.67;;;;;7.06;69.12;100695.31;5030833;28;45436;-80
2022/12/04 09:19:21;;;;;;;;;30.33;28.00;;;;;7.07;69.07;100686.66;5029769;28;58301;-81
2022/12/04 09:21:46;;;;;;;;;37.33;30.00;;;;;6.87;69.44;100646.50;5031334;28;46472;-80
2022/12/04 09:24:12;;;;;;;;;26.25;23.75;;;;;7.09;69.23;100681.47;5030201;28;45817;-80
2022/12/04 09:26:37;;;;;;;;;44.50;36.00;;;;;7.07;69.66;100665.75;5012425;28;45519;-79
2022/12/04 09:29:04;;;;;;;;;39.75;31.50;;;;;6.63;69.32;100594.00;5030517;28;45562;-81
2022/12/04 09:31:30;;;;;;;;;34.25;30.50;;;;;6.88;69.67;100639.56;5030167;28;46370;-81
2022/12/04 09:34:00;;;;;;;;;46.00;33.75;;;;;7.04;69.55;100662.06;5030197;28;45978;-79
2022/12/04 09:36:25;;;;;;;;;34.25;29.75;;;;;6.93;69.65;100651.13;5030667;28;45518;-80
2022/12/04 09:38:52;;;;;;;;;34.75;31.50;;;;;7.03;69.81;100657.69;5030770;28;45548;-80
2022/12/04 09:41:27;;;;;;;;;40.50;33.75;;;;;7.15;69.89;100674.84;5029871;28;45743;-79
2022/12/04 09:44:14;;;;;;;;;35.25;30.75;;;;;7.02;69.60;100666.34;5030536;28;45935;-79
2022/12/04 09:47:00;;;;;;;;;35.50;30.50;;;;;7.01;69.78;100660.22;5029531;28;45436;-80
2022/12/04 09:49:38;;;;;;;;;35.00;27.75;;;;;6.98;69.75;100660.06;5030148;28;45589;-81
2022/12/04 09:52:29;;;;;;;;;35.75;29.75;;;;;7.17;69.75;100681.03;5030172;28;45605;-81
2022/12/04 09:54:57;;;;;;;;;41.75;33.50;;;;;6.98;69.71;100634.84;5030337;28;46108;-81
2022/12/04 09:57:41;;;;;;;;;34.25;30.50;;;;;7.24;69.70;100675.28;5045263;28;45661;-80
2022/12/04 10:00:12;;;;;;;;;39.00;33.75;;;;;7.28;69.96;100676.28;5029802;28;45527;-82
2022/12/04 10:02:40;;;;;;;;;28.00;24.75;;;;;7.22;69.90;100657.72;5030487;28;46208;-80
2022/12/04 10:05:15;;;;;;;;;43.50;37.25;;;;;7.36;69.82;100666.22;5029679;28;45737;-80
2022/12/04 10:07:52;;;;;;;;;37.75;35.00;;;;;7.43;69.73;100668.25;5030614;28;45489;-80
2022/12/04 10:10:35;;;;;;;;;40.25;32.00;;;;;7.43;69.55;100676.09;5029767;28;45514;-81
2022/12/04 10:13:07;;;;;;;;;39.25;35.00;;;;;6.82;69.32;100573.97;5029588;28;46506;-84
2022/12/04 10:15:48;;;;;;;;;35.25;32.50;;;;;7.14;69.20;100635.53;5029712;28;45615;-81
2022/12/04 10:18:29;;;;;;;;;41.75;33.50;;;;;7.38;69.46;100678.50;5029447;28;45713;-82
2022/12/04 10:21:01;;;;;;;;;39.00;33.75;;;;;7.19;69.45;100648.03;5029937;28;45526;-79
2022/12/04 10:23:48;;;;;;;;;36.00;34.75;;;;;7.39;69.45;100674.16;5029677;28;46770;-80
2022/12/04 10:26:16;;;;;;;;;41.75;34.25;;;;;7.24;69.86;100648.22;5029161;28;45858;-79
2022/12/04 10:28:47;;;;;;;;;38.00;32.00;;;;;7.45;69.38;100656.16;5030187;28;45608;-80
2022/12/04 10:31:13;;;;;;;;;45.00;36.00;;;;;7.52;69.17;100657.34;5029564;28;45448;-80
2022/12/04 10:33:54;;;;;;;;;43.75;37.50;;;;;7.57;69.04;100663.66;5029435;28;46404;-80
2022/12/04 10:36:24;;;;;;;;;41.25;35.50;;;;;7.54;69.31;100667.06;5009478;28;45353;-79
2022/12/04 10:38:55;;;;;;;;;42.25;35.75;;;;;7.59;69.10;100667.25;5009974;28;45541;-79
2022/12/04 10:41:27;;;;;;;;;38.75;32.50;;;;;7.60;69.08;100680.41;5008704;28;45692;-79
2022/12/04 10:43:53;;;;;;;;;38.75;32.00;;;;;7.39;69.17;100629.72;5009457;28;46571;-81
2022/12/04 10:46:30;;;;;;;;;41.00;35.00;;;;;7.63;69.09;100669.16;5008941;28;45346;-81
2022/12/04 10:49:00;;;;;;;;;40.00;33.50;;;;;7.35;69.13;100618.25;5009692;28;45513;-84
2022/12/04 10:51:26;;;;;;;;;41.00;36.25;;;;;7.65;69.04;100664.91;5009687;28;45272;-85
2022/12/04 10:53:51;;;;;;;;;34.50;30.75;;;;;7.63;69.02;100663.94;5009524;28;45574;-85
2022/12/04 10:56:23;;;;;;;;;28.50;23.25;;;;;7.53;68.85;100652.16;5009125;28;45700;-87
2022/12/04 10:58:56;;;;;;;;;20.25;16.50;;;;;7.41;68.97;100631.59;5009894;28;45379;-85
2022/12/04 11:01:22;;;;;;;;;37.00;31.75;;;;;7.64;69.13;100666.66;5008880;28;45678;-80
2022/12/04 11:03:56;;;;;;;;;36.75;29.25;;;;;7.54;69.12;100643.53;5009125;28;46436;-80
2022/12/04 11:06:25;;;;;;;;;42.00;34.00;;;;;7.70;68.99;100673.88;5009078;28;45754;-80
2022/12/04 11:08:52;;;;;;;;;35.50;31.25;;;;;7.55;68.97;100639.19;5009427;28;45461;-81
2022/12/04 11:11:25;;;;;;;;;36.75;31.75;;;;;7.48;68.63;100627.53;5008809;28;45491;-80
2022/12/04 11:14:21;;;;;;;;;32.00;26.50;;;;;7.73;68.77;100651.38;5009400;28;45482;-81
2022/12/04 11:16:58;;;;;;;;;40.75;34.25;;;;;7.70;68.72;100637.25;4996523;28;45856;-80
2022/12/04 11:19:26;;;;;;;;;33.25;29.75;;;;;7.61;68.80;100602.81;5008739;28;45544;-80
2022/12/04 11:21:53;;;;;;;;;35.00;31.00;;;;;7.71;68.85;100621.59;5009380;28;45457;-79
2022/12/04 11:24:47;;;;;;;;;38.00;35.00;;;;;7.67;69.08;100610.94;5008901;28;46703;-81
2022/12/04 11:27:22;;;;;;;;;34.00;27.75;;;;;7.86;68.91;100630.94;5005481;28;45530;-80
2022/12/04 11:29:48;;;;;;;;;37.50;30.75;;;;;7.82;69.00;100635.16;5009395;28;45736;-80
2022/12/04 11:32:24;;;;;;;;;39.75;34.00;;;;;7.83;69.21;100652.66;5008696;28;45570;-79
2022/12/04 11:34:52;;;;;;;;;34.75;30.75;;;;;7.85;69.39;100656.22;5017617;28;46266;-81
2022/12/04 11:37:25;;;;;;;;;36.50;32.00;;;;;7.58;69.29;100603.56;5028560;28;45349;-79
2022/12/04 11:39:51;;;;;;;;;37.50;30.25;;;;;7.36;69.61;100566.84;5043862;28;45837;-80
2022/12/04 11:42:28;;;;;;;;;39.00;33.25;;;;;7.87;69.62;100643.19;5028773;28;45531;-80